createdAt,value
2023-04-24T00:01:29.268Z,24.50
2023-04-24T00:03:36.824Z,24.50
2023-04-24T00:05:44.557Z,24.50
2023-04-24T00:07:54.600Z,24.50
2023-04-24T00:10:02.110Z,24.40
2023-04-24T00:12:09.428Z,24.30
2023-04-24T00:14:18.552Z,24.30
2023-04-24T00:16:25.761Z,24.30
2023-04-24T00:18:33.695Z,24.40
2023-04-24T00:20:41.749Z,24.60
2023-04-24T00:22:49.375Z,24.60
2023-04-24T00:24:56.557Z,24.60
2023-04-24T00:27:04.557Z,24.70
2023-04-24T00:29:12.254Z,24.70
2023-04-24T00:31:21.173Z,24.70
2023-04-24T00:33:28.561Z,24.80
2023-04-24T00:35:35.950Z,24.80
2023-04-24T00:37:43.081Z,24.90
2023-04-24T00:39:50.574Z,24.90
2023-04-24T00:41:57.775Z,24.90
2023-04-24T00:44:05.298Z,24.90
2023-04-24T00:46:13.142Z,25.00
2023-04-24T00:48:22.421Z,25.10
2023-04-24T00:50:30.272Z,25.00
2023-04-24T00:52:38.164Z,25.00
2023-04-24T00:54:45.343Z,25.00
2023-04-24T00:56:53.398Z,25.00
2023-04-24T00:59:01.963Z,25.00
2023-04-24T01:01:11.052Z,25.00
2023-04-24T01:03:18.846Z,25.10
2023-04-24T01:05:28.328Z,25.20
2023-04-24T01:07:35.862Z,25.20
2023-04-24T01:09:44.521Z,25.30
2023-04-24T01:11:52.428Z,25.30
2023-04-24T01:14:00.993Z,25.40
2023-04-24T01:16:08.495Z,25.40
2023-04-24T01:18:15.715Z,25.50
2023-04-24T01:20:23.152Z,25.60
2023-04-24T01:22:32.432Z,25.60
2023-04-24T01:24:39.758Z,25.60
2023-04-24T01:26:47.567Z,25.60
2023-04-24T01:28:54.751Z,25.70
2023-04-24T01:31:03.386Z,25.70
2023-04-24T01:33:11.005Z,25.70
2023-04-24T01:35:18.596Z,25.70
2023-04-24T01:37:25.882Z,25.70
2023-04-24T01:39:35.582Z,25.70
2023-04-24T01:41:42.651Z,25.80
2023-04-24T01:43:50.049Z,25.80
2023-04-24T01:45:57.387Z,25.90
2023-04-24T01:48:05.818Z,25.90
2023-04-24T01:50:13.934Z,26.00
2023-04-24T01:52:21.794Z,26.00
2023-04-24T01:54:29.067Z,26.00
2023-04-24T01:56:39.326Z,26.00
2023-04-24T01:58:47.220Z,25.90
2023-04-24T02:00:54.820Z,25.90
2023-04-24T02:03:04.002Z,26.00
2023-04-24T02:05:13.065Z,26.00
2023-04-24T02:07:20.299Z,26.00
2023-04-24T02:09:27.587Z,26.10
2023-04-24T02:11:34.866Z,26.20
2023-04-24T02:13:44.358Z,26.30
2023-04-24T02:15:51.532Z,26.30
2023-04-24T02:17:59.010Z,26.50
2023-04-24T02:20:06.695Z,26.60
2023-04-24T02:22:14.456Z,26.70
2023-04-24T02:24:21.840Z,26.80
2023-04-24T02:26:29.437Z,26.90
2023-04-24T02:28:36.577Z,26.90
2023-04-24T02:30:45.595Z,27.00
2023-04-24T02:32:53.171Z,27.10
2023-04-24T02:35:00.780Z,27.20
2023-04-24T02:37:08.066Z,27.20
2023-04-24T02:39:18.514Z,27.30
2023-04-24T02:41:25.594Z,27.30
2023-04-24T02:43:33.235Z,27.40
2023-04-24T02:45:40.715Z,27.40
2023-04-24T02:47:50.147Z,27.50
2023-04-24T02:49:57.493Z,27.60
2023-04-24T02:52:05.034Z,27.60
2023-04-24T02:54:12.984Z,27.60
2023-04-24T02:56:20.369Z,27.70
2023-04-24T02:58:27.864Z,27.70
2023-04-24T03:00:35.499Z,27.80
2023-04-24T03:02:43.042Z,27.80
2023-04-24T03:04:52.477Z,27.90
2023-04-24T03:07:00.987Z,27.90
2023-04-24T03:09:08.476Z,28.00
2023-04-24T03:11:15.815Z,28.00
2023-04-24T03:13:23.300Z,28.10
2023-04-24T03:15:31.280Z,28.10
2023-04-24T03:17:38.964Z,28.20
2023-04-24T03:19:46.719Z,28.20
2023-04-24T03:21:55.874Z,28.30
2023-04-24T03:24:03.173Z,28.30
2023-04-24T03:26:10.792Z,28.40
2023-04-24T03:28:24.391Z,28.50
2023-04-24T03:30:44.100Z,28.50
2023-04-24T03:32:52.282Z,28.60
2023-04-24T03:35:04.762Z,28.60
2023-04-24T03:37:14.298Z,28.60
2023-04-24T03:39:27.321Z,28.60
2023-04-24T03:41:36.397Z,28.70
2023-04-24T03:43:53.726Z,28.70
2023-04-24T03:46:01.803Z,28.70
2023-04-24T03:48:11.668Z,28.70
2023-04-24T03:50:19.002Z,28.70
2023-04-24T03:52:28.482Z,28.70
2023-04-24T03:54:36.075Z,28.80
2023-04-24T03:56:43.459Z,28.80
2023-04-24T03:58:50.795Z,28.80
2023-04-24T04:00:59.000Z,28.80
2023-04-24T04:03:25.158Z,28.90
2023-04-24T04:05:32.713Z,28.90
2023-04-24T04:07:41.637Z,28.90
2023-04-24T04:09:49.382Z,28.90
2023-04-24T04:11:57.233Z,28.90
2023-04-24T04:14:04.566Z,29.00
2023-04-24T04:16:14.805Z,29.00
2023-04-24T04:18:22.211Z,29.10
2023-04-24T04:20:30.345Z,29.10
2023-04-24T04:22:37.796Z,29.20
2023-04-24T04:24:50.304Z,29.20
2023-04-24T04:27:00.249Z,29.30
2023-04-24T04:29:16.789Z,29.30
2023-04-24T04:31:26.953Z,29.40
2023-04-24T04:33:35.680Z,29.40
2023-04-24T04:35:43.420Z,29.50
2023-04-24T04:37:50.853Z,29.40
2023-04-24T04:40:19.949Z,29.50
2023-04-24T04:42:37.832Z,29.50
2023-04-24T04:44:46.930Z,29.60
2023-04-24T04:47:01.210Z,29.60
2023-04-24T04:49:12.945Z,29.70
2023-04-24T04:51:20.490Z,29.80
2023-04-24T04:53:28.382Z,30.00
2023-04-24T04:55:37.581Z,30.10
2023-04-24T04:57:52.578Z,30.20
2023-04-24T05:00:00.286Z,30.20
2023-04-24T05:02:20.606Z,30.20
2023-04-24T05:04:28.592Z,30.30
2023-04-24T05:06:36.305Z,30.40
2023-04-24T05:08:45.331Z,30.40
2023-04-24T05:11:05.262Z,30.40
2023-04-24T05:13:14.189Z,30.40
2023-04-24T05:15:22.041Z,30.40
2023-04-24T05:17:29.734Z,30.40
2023-04-24T05:19:39.990Z,30.40
2023-04-24T05:21:48.485Z,30.50
2023-04-24T05:23:55.673Z,30.70
2023-04-24T05:26:33.988Z,30.90
2023-04-24T05:28:41.421Z,31.10
2023-04-24T05:30:52.956Z,31.10
2023-04-24T05:33:02.504Z,31.10
2023-04-24T05:35:12.541Z,31.30
2023-04-24T05:37:19.776Z,31.40
2023-04-24T05:39:27.424Z,31.40
2023-04-24T05:41:37.415Z,31.40
2023-04-24T05:43:44.958Z,31.50
2023-04-24T05:45:52.186Z,31.40
2023-04-24T05:47:59.547Z,31.50
2023-04-24T05:50:06.909Z,31.60
2023-04-24T05:52:14.605Z,31.50
2023-04-24T05:54:23.123Z,31.70
2023-04-24T05:56:30.562Z,31.70
2023-04-24T05:58:41.625Z,31.90
2023-04-24T06:00:49.985Z,31.90
2023-04-24T06:02:58.287Z,31.90
2023-04-24T06:05:06.711Z,31.70
2023-04-24T06:07:14.558Z,31.40
2023-04-24T06:09:23.787Z,31.30
2023-04-24T06:11:30.924Z,31.20
2023-04-24T06:13:40.242Z,31.00
2023-04-24T06:16:05.909Z,30.90
2023-04-24T06:18:16.570Z,30.80
2023-04-24T06:20:24.220Z,30.60
2023-04-24T06:22:31.866Z,30.60
2023-04-24T06:24:39.854Z,30.50
2023-04-24T06:26:47.350Z,30.40
2023-04-24T06:28:57.548Z,30.30
2023-04-24T06:31:05.598Z,30.30
2023-04-24T06:33:21.097Z,30.20
2023-04-24T06:35:29.085Z,30.30
2023-04-24T06:37:36.722Z,30.30
2023-04-24T06:39:44.308Z,30.30
2023-04-24T06:41:52.213Z,30.40
2023-04-24T06:44:02.612Z,30.30
2023-04-24T06:46:10.344Z,30.40
2023-04-24T06:48:17.449Z,30.50
2023-04-24T06:50:25.080Z,30.50
2023-04-24T06:52:34.871Z,30.50
2023-04-24T06:54:42.363Z,30.50
2023-04-24T06:56:49.901Z,30.50
2023-04-24T06:58:57.287Z,30.60
2023-04-24T07:01:06.110Z,30.60
2023-04-24T07:03:14.028Z,30.70
2023-04-24T07:05:22.889Z,30.70
2023-04-24T07:07:30.426Z,30.60
2023-04-24T07:09:40.991Z,30.60
2023-04-24T07:11:48.784Z,30.70
2023-04-24T07:13:55.959Z,30.70
2023-04-24T07:16:05.303Z,30.80
2023-04-24T07:18:12.955Z,30.80
2023-04-24T07:20:20.377Z,31.00
2023-04-24T07:22:27.741Z,31.20
2023-04-24T07:24:35.771Z,31.20
2023-04-24T07:26:43.556Z,31.30
2023-04-24T07:28:50.992Z,31.20
2023-04-24T07:30:58.178Z,31.20
2023-04-24T07:33:07.272Z,31.10
2023-04-24T07:35:14.999Z,31.10
2023-04-24T07:37:22.226Z,31.00
2023-04-24T07:39:31.278Z,30.90
2023-04-24T07:41:38.567Z,30.70
2023-04-24T07:43:46.175Z,30.60
2023-04-24T07:45:53.654Z,30.50
2023-04-24T07:48:01.160Z,30.50
2023-04-24T07:50:10.743Z,30.50
2023-04-24T07:52:18.127Z,30.50
2023-04-24T07:54:25.264Z,30.60
2023-04-24T07:56:33.296Z,30.70
2023-04-24T07:58:40.851Z,30.80
2023-04-24T08:00:48.501Z,31.00
2023-04-24T08:02:55.888Z,31.10
2023-04-24T08:05:03.314Z,31.10
2023-04-24T08:07:14.862Z,31.10
2023-04-24T08:09:21.569Z,31.20
2023-04-24T08:11:28.975Z,31.20
2023-04-24T08:13:36.450Z,31.30
2023-04-24T08:15:43.912Z,31.40
2023-04-24T08:17:52.021Z,31.60
2023-04-24T08:20:03.345Z,31.70
2023-04-24T08:22:12.646Z,31.70
2023-04-24T08:24:19.981Z,31.60
2023-04-24T08:26:27.747Z,31.50
2023-04-24T08:28:35.166Z,31.40
2023-04-24T08:30:42.706Z,31.30
2023-04-24T08:32:50.388Z,31.20
2023-04-24T08:34:58.458Z,31.10
2023-04-24T08:37:06.563Z,31.00
2023-04-24T08:39:16.241Z,30.90
2023-04-24T08:41:24.857Z,30.90
2023-04-24T08:43:32.295Z,30.90
2023-04-24T08:45:40.517Z,30.90
2023-04-24T08:47:48.158Z,30.90
2023-04-24T08:49:55.742Z,31.00
2023-04-24T08:52:04.250Z,31.10
2023-04-24T08:54:11.591Z,31.20
2023-04-24T08:56:20.966Z,31.30
2023-04-24T08:58:29.889Z,31.30
2023-04-24T09:00:37.892Z,31.40
2023-04-24T09:02:47.504Z,31.50
2023-04-24T09:04:55.426Z,31.50
2023-04-24T09:07:02.935Z,31.60
2023-04-24T09:09:10.301Z,31.60
2023-04-24T09:11:19.535Z,31.60
2023-04-24T09:13:27.382Z,31.60
2023-04-24T09:15:34.766Z,31.60
2023-04-24T09:17:42.773Z,31.70
2023-04-24T09:19:50.051Z,31.60
2023-04-24T09:21:58.239Z,31.60
2023-04-24T09:24:06.666Z,31.60
2023-04-24T09:26:16.158Z,31.60
2023-04-24T09:28:31.336Z,31.70
2023-04-24T09:30:38.759Z,31.70
2023-04-24T09:32:45.952Z,31.80
2023-04-24T09:34:53.634Z,31.90
2023-04-24T09:37:00.969Z,31.90
2023-04-24T09:39:10.199Z,31.90
2023-04-24T09:41:19.173Z,31.90
2023-04-24T09:43:30.591Z,31.80
2023-04-24T09:45:41.539Z,31.80
2023-04-24T09:47:48.959Z,31.80
2023-04-24T09:50:01.766Z,31.80
2023-04-24T09:52:09.936Z,31.70
2023-04-24T09:54:19.726Z,31.70
2023-04-24T09:56:30.846Z,31.70
2023-04-24T09:58:40.902Z,31.70
2023-04-24T10:00:50.025Z,31.70
2023-04-24T10:03:03.431Z,31.70
2023-04-24T10:05:11.453Z,31.70
2023-04-24T10:07:20.426Z,31.70
2023-04-24T10:09:28.651Z,31.70
2023-04-24T10:11:36.001Z,31.70
2023-04-24T10:13:45.348Z,31.70
2023-04-24T10:15:54.254Z,31.70
2023-04-24T10:18:03.541Z,31.60
2023-04-24T10:20:12.239Z,31.60
2023-04-24T10:22:21.863Z,31.60
2023-04-24T10:24:29.391Z,31.60
2023-04-24T10:26:37.400Z,31.50
2023-04-24T10:28:48.779Z,31.50
2023-04-24T10:30:58.811Z,31.50
2023-04-24T10:33:06.511Z,31.50
2023-04-24T10:35:16.114Z,31.40
2023-04-24T10:37:23.670Z,31.40
2023-04-24T10:39:31.037Z,31.30
2023-04-24T10:41:41.204Z,31.30
2023-04-24T10:43:52.984Z,31.30
2023-04-24T10:46:07.436Z,31.20
2023-04-24T10:48:15.708Z,31.20
2023-04-24T10:50:25.485Z,31.10
2023-04-24T10:52:50.577Z,31.10
2023-04-24T10:54:59.911Z,31.00
2023-04-24T10:57:32.649Z,31.00
2023-04-24T10:59:42.186Z,31.00
2023-04-24T11:01:58.379Z,30.90
2023-04-24T11:04:07.151Z,30.90
2023-04-24T11:06:16.988Z,30.80
2023-04-24T11:08:30.423Z,30.80
2023-04-24T11:10:37.694Z,30.70
2023-04-24T11:12:45.286Z,30.70
2023-04-24T11:15:15.147Z,30.70
2023-04-24T11:17:35.343Z,30.60
2023-04-24T11:19:44.256Z,30.60
2023-04-24T11:21:53.944Z,30.50
2023-04-24T11:24:01.280Z,30.50
2023-04-24T11:26:32.377Z,30.40
2023-04-24T11:28:41.476Z,30.40
2023-04-24T11:30:51.549Z,30.40
2023-04-24T11:32:58.934Z,30.30
2023-04-24T11:35:07.602Z,30.30
2023-04-24T11:37:15.449Z,30.30
2023-04-24T11:39:22.837Z,30.20
2023-04-24T11:41:30.734Z,30.20
2023-04-24T11:43:39.159Z,30.10
2023-04-24T11:45:56.140Z,30.10
2023-04-24T11:48:03.948Z,30.10
2023-04-24T11:50:13.285Z,30.10
2023-04-24T11:52:21.652Z,30.00
2023-04-24T11:54:28.875Z,29.90
2023-04-24T11:56:36.318Z,29.90
2023-04-24T11:58:43.853Z,29.90
2023-04-24T12:00:59.843Z,29.80
2023-04-24T12:03:13.717Z,29.80
2023-04-24T12:05:26.619Z,29.80
2023-04-24T12:07:44.769Z,29.80
2023-04-24T12:09:53.555Z,29.70
2023-04-24T12:12:01.299Z,29.60
2023-04-24T12:14:15.805Z,29.50
2023-04-24T12:16:23.293Z,29.50
2023-04-24T12:18:32.315Z,29.40
2023-04-24T12:20:41.396Z,29.40
2023-04-24T12:22:52.539Z,29.30
2023-04-24T12:25:07.532Z,29.20
2023-04-24T12:27:25.676Z,29.10
2023-04-24T12:29:33.363Z,29.10
2023-04-24T12:31:40.549Z,29.10
2023-04-24T12:33:49.741Z,29.10
2023-04-24T12:35:57.531Z,29.10
2023-04-24T12:38:11.926Z,29.20
2023-04-24T12:40:19.827Z,29.20
2023-04-24T12:42:31.609Z,29.20
2023-04-24T12:44:39.201Z,29.10
2023-04-24T12:47:12.313Z,29.10
2023-04-24T12:49:21.368Z,29.10
2023-04-24T12:51:28.801Z,29.00
2023-04-24T12:53:35.935Z,29.00
2023-04-24T12:55:43.325Z,29.00
2023-04-24T12:57:50.617Z,29.00
2023-04-24T12:59:59.787Z,29.10
2023-04-24T13:02:07.073Z,29.10
2023-04-24T13:04:14.704Z,29.00
2023-04-24T13:06:23.696Z,29.00
2023-04-24T13:08:31.069Z,29.00
2023-04-24T13:10:38.354Z,29.00
2023-04-24T13:12:47.453Z,29.00
2023-04-24T13:14:55.129Z,29.00
2023-04-24T13:17:02.825Z,29.00
2023-04-24T13:19:10.314Z,29.00
2023-04-24T13:21:18.049Z,29.00
2023-04-24T13:23:27.485Z,29.00
2023-04-24T13:25:39.383Z,29.00
2023-04-24T13:27:46.762Z,29.00
2023-04-24T13:34:39.848Z,29.00
2023-04-24T13:36:47.290Z,29.00
2023-04-24T13:38:56.668Z,28.90
2023-04-24T13:41:04.012Z,28.90
2023-04-24T13:43:11.752Z,28.90
2023-04-24T13:45:34.716Z,28.80
2023-04-24T13:47:42.946Z,28.80
2023-04-24T13:49:50.085Z,28.80
2023-04-24T13:51:57.932Z,28.70
2023-04-24T13:54:06.861Z,28.70
2023-04-24T13:56:15.833Z,28.70
2023-04-24T13:58:23.166Z,28.70
2023-04-24T14:00:30.572Z,28.70
2023-04-24T14:02:43.261Z,28.70
2023-04-24T14:04:51.848Z,28.70
2023-04-24T14:06:59.722Z,28.70
2023-04-24T14:09:08.965Z,28.70
2023-04-24T14:11:16.328Z,28.60
2023-04-24T14:13:24.290Z,28.60
2023-04-24T14:15:32.139Z,28.60
2023-04-24T14:17:39.698Z,28.60
2023-04-24T14:19:46.807Z,28.60
2023-04-24T14:21:59.224Z,28.50
2023-04-24T14:24:08.444Z,28.50
2023-04-24T14:26:15.933Z,28.50
2023-04-24T14:28:23.266Z,28.50
2023-04-24T14:30:30.903Z,28.40
2023-04-24T14:32:38.205Z,28.40
2023-04-24T14:34:45.633Z,28.40
2023-04-24T14:36:52.814Z,28.40
2023-04-24T14:39:00.099Z,28.30
2023-04-24T14:41:13.980Z,28.30
2023-04-24T14:43:21.725Z,28.30
2023-04-24T14:45:29.126Z,28.30
2023-04-24T14:47:36.661Z,28.20
2023-04-24T14:49:45.631Z,28.20
2023-04-24T14:51:55.836Z,28.20
2023-04-24T14:54:03.630Z,28.20
2023-04-24T14:56:13.068Z,28.20
2023-04-24T14:58:20.195Z,28.10
2023-04-24T15:00:27.788Z,28.00
2023-04-24T15:02:35.075Z,28.00
2023-04-24T15:04:42.970Z,28.00
2023-04-24T15:06:50.300Z,28.00
2023-04-24T15:08:57.899Z,28.00
2023-04-24T15:11:05.341Z,28.00
2023-04-24T15:13:14.532Z,28.00
2023-04-24T15:15:21.762Z,28.00
2023-04-24T15:17:29.476Z,27.90
2023-04-24T15:19:36.876Z,27.90
2023-04-24T15:21:44.723Z,27.90
2023-04-24T15:23:51.908Z,27.90
2023-04-24T15:25:59.701Z,27.90
2023-04-24T15:28:07.036Z,27.80
2023-04-24T15:30:17.297Z,27.80
2023-04-24T15:32:25.062Z,27.90
2023-04-24T15:34:34.156Z,27.80
2023-04-24T15:36:42.068Z,27.80
2023-04-24T15:38:49.647Z,27.80
2023-04-24T15:40:57.032Z,27.70
2023-04-24T15:43:04.266Z,27.80
2023-04-24T15:45:12.730Z,27.70
2023-04-24T15:47:21.780Z,27.70
2023-04-24T15:49:29.479Z,27.70
2023-04-24T15:51:36.528Z,27.70
2023-04-24T15:53:44.171Z,27.60
2023-04-24T15:55:51.486Z,27.60
2023-04-24T15:57:58.995Z,27.50
2023-04-24T16:00:07.982Z,27.60
2023-04-24T16:02:22.888Z,27.60
2023-04-24T16:04:30.300Z,27.50
2023-04-24T16:06:37.916Z,27.50
2023-04-24T16:08:45.435Z,27.50
2023-04-24T16:10:53.727Z,27.40
2023-04-24T16:13:02.146Z,27.40
2023-04-24T16:15:10.209Z,27.50
2023-04-24T16:17:17.555Z,27.40
2023-04-24T16:19:26.378Z,27.50
2023-04-24T16:21:33.913Z,27.50
2023-04-24T16:23:41.197Z,27.50
2023-04-24T16:25:49.046Z,27.50
2023-04-24T16:27:56.483Z,27.50
2023-04-24T16:30:04.379Z,27.40
2023-04-24T16:32:12.035Z,27.30
2023-04-24T16:34:19.672Z,27.30
2023-04-24T16:36:29.713Z,27.40
2023-04-24T16:38:37.102Z,27.30
2023-04-24T16:40:44.691Z,27.40
2023-04-24T16:43:02.174Z,27.40
2023-04-24T16:45:10.444Z,27.30
2023-04-24T16:47:18.627Z,27.30
2023-04-24T16:49:27.506Z,27.20
2023-04-24T16:51:36.572Z,27.20
2023-04-24T16:53:44.376Z,27.20
2023-04-24T16:55:51.643Z,27.20
2023-04-24T16:57:59.400Z,27.20
2023-04-24T17:00:06.921Z,27.20
2023-04-24T17:02:14.457Z,27.20
2023-04-24T17:04:21.566Z,27.20
2023-04-24T17:06:29.353Z,27.10
2023-04-24T17:08:38.176Z,27.10
2023-04-24T17:10:45.715Z,27.20
2023-04-24T17:12:52.687Z,27.20
2023-04-24T17:15:00.382Z,27.20
2023-04-24T17:17:07.613Z,27.20
2023-04-24T17:19:15.257Z,27.20
2023-04-24T17:21:22.388Z,27.20
2023-04-24T17:23:29.830Z,27.20
2023-04-24T17:25:38.748Z,27.10
2023-04-24T17:27:46.190Z,27.20
2023-04-24T17:29:53.550Z,27.10
2023-04-24T17:32:01.095Z,27.10
2023-04-24T17:34:08.856Z,27.10
2023-04-24T17:36:16.452Z,27.10
2023-04-24T17:38:23.939Z,27.10
2023-04-24T17:40:31.483Z,27.00
2023-04-24T17:42:42.356Z,26.90
2023-04-24T17:44:50.191Z,26.90
2023-04-24T17:46:57.484Z,26.90
2023-04-24T17:49:05.071Z,26.80
2023-04-24T17:51:12.610Z,26.90
2023-04-24T17:53:21.652Z,26.90
2023-04-24T17:55:29.074Z,26.90
2023-04-24T17:57:36.569Z,26.90
2023-04-24T17:59:45.479Z,26.90
2023-04-24T18:01:54.066Z,26.90
2023-04-24T18:04:01.645Z,26.80
2023-04-24T18:06:11.133Z,26.90
2023-04-24T18:08:18.257Z,26.90
2023-04-24T18:10:25.699Z,26.90
2023-04-24T18:12:32.988Z,26.90
2023-04-24T18:14:40.566Z,26.90
2023-04-24T18:16:49.383Z,26.90
2023-04-24T18:18:56.775Z,26.90
2023-04-24T18:21:03.913Z,26.80
2023-04-24T18:23:11.288Z,26.90
2023-04-24T18:25:18.930Z,26.90
2023-04-24T18:27:30.311Z,26.90
2023-04-24T18:29:37.439Z,26.90
2023-04-24T18:31:45.032Z,26.80
2023-04-24T18:33:55.132Z,26.80
2023-04-24T18:36:04.566Z,26.80
2023-04-24T18:38:12.009Z,26.80
2023-04-24T18:40:20.314Z,26.70
2023-04-24T18:42:27.605Z,26.70
2023-04-24T18:44:35.188Z,26.60
2023-04-24T18:46:42.438Z,26.70
2023-04-24T18:48:50.243Z,26.70
2023-04-24T18:50:59.451Z,26.70
2023-04-24T18:53:07.099Z,26.70
2023-04-24T18:55:14.808Z,26.70
2023-04-24T18:57:22.280Z,26.70
2023-04-24T18:59:30.128Z,26.70
2023-04-24T19:01:37.320Z,26.70
2023-04-24T19:03:44.941Z,26.70
2023-04-24T19:05:52.028Z,26.70
2023-04-24T19:08:01.359Z,26.60
2023-04-24T19:10:09.047Z,26.60
2023-04-24T19:12:16.450Z,26.60
2023-04-24T19:14:23.973Z,26.60
2023-04-24T19:16:31.343Z,26.60
2023-04-24T19:18:39.058Z,26.70
2023-04-24T19:20:46.902Z,26.70
2023-04-24T19:22:54.232Z,26.70
2023-04-24T19:25:04.446Z,26.70
2023-04-24T19:27:12.589Z,26.70
2023-04-24T19:29:20.078Z,26.70
2023-04-24T19:31:27.404Z,26.70
2023-04-24T19:33:35.062Z,26.70
2023-04-24T19:35:42.393Z,26.60
2023-04-24T19:37:49.989Z,26.60
2023-04-24T19:39:57.120Z,26.60
2023-04-24T19:42:07.649Z,26.60
2023-04-24T19:44:15.773Z,26.60
2023-04-24T19:46:23.262Z,26.60
2023-04-24T19:48:32.194Z,26.60
2023-04-24T19:50:39.839Z,26.60
2023-04-24T19:52:46.918Z,26.60
2023-04-24T19:54:54.476Z,26.60
2023-04-24T19:57:01.644Z,26.60
2023-04-24T19:59:10.766Z,26.60
2023-04-24T20:01:17.920Z,26.50
2023-04-24T20:03:33.078Z,26.60
2023-04-24T20:05:41.684Z,26.50
2023-04-24T20:07:48.964Z,26.50
2023-04-24T20:09:56.099Z,26.60
2023-04-24T20:12:03.907Z,26.50
2023-04-24T20:14:12.761Z,26.50
2023-04-24T20:16:20.292Z,26.40
2023-04-24T20:18:27.380Z,26.40
2023-04-24T20:20:35.746Z,26.40
2023-04-24T20:22:42.978Z,26.30
2023-04-24T20:24:51.537Z,26.30
2023-04-24T20:26:58.671Z,26.30
2023-04-24T20:29:06.258Z,26.30
2023-04-24T20:31:15.651Z,26.30
2023-04-24T20:33:23.496Z,26.20
2023-04-24T20:35:31.081Z,26.20
2023-04-24T20:37:38.834Z,26.30
2023-04-24T20:39:47.323Z,26.30
2023-04-24T20:41:54.672Z,26.30
2023-04-24T20:44:02.276Z,26.30
2023-04-24T20:46:09.901Z,26.30
2023-04-24T20:48:19.289Z,26.30
2023-04-24T20:50:26.609Z,26.40
2023-04-24T20:52:34.216Z,26.40
2023-04-24T20:54:42.843Z,26.40
2023-04-24T20:56:50.677Z,26.40
2023-04-24T20:58:57.960Z,26.40
2023-04-24T21:01:05.421Z,26.40
2023-04-24T21:03:12.660Z,26.40
2023-04-24T21:05:22.013Z,26.40
2023-04-24T21:07:29.154Z,26.30
2023-04-24T21:09:37.814Z,26.30
2023-04-24T21:11:45.248Z,26.30
2023-04-24T21:13:52.788Z,26.30
2023-04-24T21:16:00.025Z,26.30
2023-04-24T21:18:07.974Z,26.30
2023-04-24T21:20:15.574Z,26.30
2023-04-24T21:22:24.690Z,26.30
2023-04-24T21:24:31.772Z,26.40
2023-04-24T21:26:39.460Z,26.40
2023-04-24T21:28:47.107Z,26.30
2023-04-24T21:30:54.488Z,26.30
2023-04-24T21:33:02.080Z,26.30
2023-04-24T21:35:10.134Z,26.30
2023-04-24T21:37:18.089Z,26.30
2023-04-24T21:39:28.439Z,26.30
2023-04-24T21:41:35.827Z,26.30
2023-04-24T21:43:45.757Z,26.30
2023-04-24T21:45:54.215Z,26.30
2023-04-24T21:48:02.856Z,26.30
2023-04-24T21:50:11.576Z,26.30
2023-04-24T21:52:18.746Z,26.30
2023-04-24T21:54:27.976Z,26.30
2023-04-24T21:56:35.414Z,26.30
2023-04-24T21:58:42.904Z,26.30
2023-04-24T22:00:50.141Z,26.30
2023-04-24T22:02:57.784Z,26.30
2023-04-24T22:05:06.358Z,26.30
2023-04-24T22:07:13.935Z,26.30
2023-04-24T22:09:21.065Z,26.30
2023-04-24T22:11:30.603Z,26.20
2023-04-24T22:13:37.885Z,26.20
2023-04-24T22:15:45.516Z,26.20
2023-04-24T22:17:53.723Z,26.10
2023-04-24T22:20:01.122Z,26.10
2023-04-24T22:22:08.406Z,26.10
2023-04-24T22:24:16.009Z,26.10
2023-04-24T22:26:23.691Z,26.10
2023-04-24T22:28:33.436Z,26.10
2023-04-24T22:30:40.672Z,26.10
2023-04-24T22:32:48.456Z,26.10
2023-04-24T22:34:56.204Z,26.10
2023-04-24T22:37:04.260Z,26.10
2023-04-24T22:39:11.593Z,26.10
2023-04-24T22:41:19.294Z,26.00
2023-04-24T22:43:26.721Z,26.10
2023-04-24T22:45:36.071Z,26.00
2023-04-24T22:47:43.208Z,26.10
2023-04-24T22:49:50.979Z,26.10
2023-04-24T22:51:58.687Z,26.10
2023-04-24T22:54:07.499Z,26.10
2023-04-24T22:56:14.724Z,26.10
2023-04-24T22:58:22.320Z,26.10
2023-04-24T23:00:29.682Z,26.10
2023-04-24T23:02:39.395Z,26.10
2023-04-24T23:04:47.087Z,26.10
2023-04-24T23:06:54.378Z,26.10
2023-04-24T23:09:01.707Z,26.10
2023-04-24T23:11:08.895Z,26.20
2023-04-24T23:13:16.479Z,26.20
2023-04-24T23:15:23.869Z,26.20
2023-04-24T23:17:31.548Z,26.30
2023-04-24T23:19:40.430Z,26.20
2023-04-24T23:21:47.575Z,26.20
2023-04-24T23:23:54.999Z,26.30
2023-04-24T23:26:02.541Z,26.30
2023-04-24T23:28:09.827Z,26.30
2023-04-24T23:30:17.578Z,26.20
2023-04-24T23:32:24.862Z,26.20
2023-04-24T23:34:35.003Z,26.20
2023-04-24T23:36:43.925Z,26.20
2023-04-24T23:38:51.268Z,26.20
2023-04-24T23:40:58.600Z,26.20
2023-04-24T23:43:07.859Z,26.30
2023-04-24T23:45:15.942Z,26.30
2023-04-24T23:47:23.513Z,26.30
2023-04-24T23:49:30.758Z,26.40
2023-04-24T23:51:38.451Z,26.50
2023-04-24T23:53:47.737Z,26.50
2023-04-24T23:55:55.492Z,26.50
2023-04-24T23:58:02.603Z,26.60
